Time;durP1;ratioP1;P1;durP2;ratioP2;P2;SDS_P1;SDS_P2;PMS_P1;PMS_P2;Temp;Humidity;BMP_temperature;BMP_pressure;BME280_temperature;BME280_humidity;BME280_pressure;Samples;Min_cycle;Max_cycle;Signal;HPM_P1;HPM_P2
2022/07/04 00:01:44;;;;;;;1.83;1.73;;;21.50;99.90;;;;;;5004939;28;20196;-76
2022/07/04 00:04:11;;;;;;;1.95;1.75;;;21.50;99.90;;;;;;5010847;28;20319;-77
2022/07/04 00:06:38;;;;;;;1.83;1.73;;;21.40;99.90;;;;;;5009635;28;20203;-77
2022/07/04 00:09:05;;;;;;;1.90;1.50;;;21.50;99.90;;;;;;5010966;28;20348;-76
2022/07/04 00:11:33;;;;;;;1.60;1.50;;;21.50;99.90;;;;;;5010549;28;20315;-76
2022/07/04 00:14:01;;;;;;;8.27;1.65;;;21.40;99.90;;;;;;5010042;28;20702;-76
2022/07/04 00:16:28;;;;;;;3.28;1.60;;;21.30;99.90;;;;;;5005585;28;20209;-76
2022/07/04 00:18:55;;;;;;;1.40;1.30;;;21.20;99.90;;;;;;5005774;28;20308;-76
2022/07/04 00:21:22;;;;;;;1.45;1.35;;;21.20;99.90;;;;;;5007179;28;20224;-75
2022/07/04 00:23:50;;;;;;;1.77;1.67;;;21.20;99.90;;;;;;5004081;28;20233;-76
2022/07/04 00:26:17;;;;;;;3.20;1.85;;;21.10;99.90;;;;;;5008670;28;20231;-76
2022/07/04 00:28:46;;;;;;;1.50;1.40;;;21.10;99.90;;;;;;5006743;28;20200;-75
2022/07/04 00:31:13;;;;;;;3.53;1.85;;;21.20;99.90;;;;;;5008866;28;20220;-76
2022/07/04 00:33:40;;;;;;;3.22;1.70;;;21.30;99.90;;;;;;5012639;28;20618;-77
2022/07/04 00:36:08;;;;;;;3.35;2.20;;;21.30;99.90;;;;;;5005737;28;20232;-76
2022/07/04 00:38:35;;;;;;;2.20;1.58;;;21.50;99.90;;;;;;5014234;28;20196;-76
2022/07/04 00:41:02;;;;;;;2.05;1.85;;;21.50;99.90;;;;;;5011319;28;20208;-77
2022/07/04 00:43:29;;;;;;;1.40;1.30;;;21.40;99.90;;;;;;5011647;28;20564;-77
2022/07/04 00:45:58;;;;;;;1.85;1.75;;;21.50;99.90;;;;;;5010201;28;20216;-77
2022/07/04 00:48:25;;;;;;;1.30;1.30;;;21.60;99.90;;;;;;5012813;28;20200;-76
2022/07/04 00:50:52;;;;;;;1.83;1.73;;;21.70;99.90;;;;;;5010372;28;20216;-78
2022/07/04 00:53:22;;;;;;;1.55;1.45;;;21.70;99.90;;;;;;5012455;28;20223;-75
2022/07/04 00:55:51;;;;;;;1.35;1.25;;;21.70;99.90;;;;;;5004569;28;20313;-76
2022/07/04 00:58:22;;;;;;;1.30;1.30;;;21.70;99.90;;;;;;5014972;28;20664;-76
2022/07/04 01:00:50;;;;;;;3.08;1.85;;;21.70;99.90;;;;;;5009978;28;20302;-76
2022/07/04 01:03:19;;;;;;;1.80;1.70;;;21.70;99.90;;;;;;5011082;28;20236;-76
2022/07/04 01:05:46;;;;;;;1.55;1.50;;;21.60;99.90;;;;;;5016320;28;20220;-76
2022/07/04 01:08:14;;;;;;;2.10;1.88;;;21.60;99.90;;;;;;5011748;28;20212;-77
2022/07/04 01:10:41;;;;;;;2.75;1.70;;;21.70;99.90;;;;;;5015972;28;20235;-76
2022/07/04 01:13:08;;;;;;;1.83;1.73;;;21.70;99.90;;;;;;5019409;28;20227;-78
2022/07/04 01:15:35;;;;;;;2.13;1.85;;;21.70;99.90;;;;;;5018046;28;20220;-75
2022/07/04 01:18:03;;;;;;;1.90;1.73;;;21.70;99.90;;;;;;5018439;28;20205;-77
2022/07/04 01:20:37;;;;;;;1.70;1.60;;;21.70;99.90;;;;;;5007111;28;20521;-76
2022/07/04 01:23:05;;;;;;;1.77;1.67;;;21.70;99.90;;;;;;5006575;28;20212;-76
2022/07/04 01:25:33;;;;;;;1.70;1.60;;;21.70;99.90;;;;;;5011398;28;20687;-76
2022/07/04 01:28:01;;;;;;;1.73;1.63;;;21.70;99.90;;;;;;5014600;28;20192;-76
2022/07/04 01:30:28;;;;;;;1.65;1.55;;;21.70;99.90;;;;;;5009075;28;20315;-76
2022/07/04 01:32:55;;;;;;;1.95;1.77;;;21.70;99.90;;;;;;5009625;28;20220;-76
2022/07/04 01:35:23;;;;;;;1.77;1.67;;;21.70;99.90;;;;;;5011959;28;20702;-76
2022/07/04 01:37:52;;;;;;;1.63;1.50;;;21.70;99.90;;;;;;5017714;28;20196;-76
2022/07/04 01:40:19;;;;;;;1.52;1.42;;;21.60;99.90;;;;;;5013860;28;20740;-76
2022/07/04 01:42:46;;;;;;;1.60;1.50;;;21.60;99.90;;;;;;5011703;28;20212;-78
2022/07/04 01:45:13;;;;;;;1.50;1.40;;;21.60;99.90;;;;;;5011443;28;20311;-76
2022/07/04 01:47:41;;;;;;;1.55;1.45;;;21.70;99.90;;;;;;5010975;28;20196;-76
2022/07/04 01:50:12;;;;;;;1.50;1.40;;;21.60;99.90;;;;;;5013174;28;20228;-75
2022/07/04 01:52:39;;;;;;;2.40;1.73;;;21.60;99.90;;;;;;5012944;28;20302;-77
2022/07/04 01:55:09;;;;;;;1.65;1.55;;;21.60;99.90;;;;;;5013635;28;20700;-76
2022/07/04 01:57:37;;;;;;;2.53;2.25;;;21.60;99.90;;;;;;5008849;28;20676;-77
2022/07/04 02:02:50;;;;;;;2.47;2.03;;;21.40;99.90;;;;;;5007703;28;20230;-76
2022/07/04 02:05:18;;;;;;;2.03;1.83;;;21.30;99.90;;;;;;5012599;28;20634;-77
2022/07/04 02:07:45;;;;;;;2.10;2.00;;;21.20;99.90;;;;;;5014935;28;20204;-77
2022/07/04 02:10:13;;;;;;;2.17;2.00;;;21.10;99.90;;;;;;5012661;28;20302;-76
2022/07/04 02:15:25;;;;;;;2.75;2.50;;;20.90;99.90;;;;;;5012092;28;20222;-77
2022/07/04 02:17:53;;;;;;;2.40;2.20;;;20.80;99.90;;;;;;5014864;28;20200;-76
2022/07/04 02:20:20;;;;;;;3.60;2.72;;;20.70;99.90;;;;;;5011065;28;20219;-75
2022/07/04 02:22:53;;;;;;;2.55;2.30;;;20.60;99.90;;;;;;5015554;28;20220;-78
2022/07/04 02:25:22;;;;;;;2.58;2.38;;;20.50;99.90;;;;;;5011138;28;20222;-76
2022/07/04 02:27:49;;;;;;;2.20;2.00;;;20.50;99.90;;;;;;5005633;28;20202;-78
2022/07/04 02:30:16;;;;;;;2.35;2.10;;;20.50;99.90;;;;;;5007894;28;20725;-76
2022/07/04 02:32:43;;;;;;;2.20;2.00;;;20.60;99.90;;;;;;5013869;28;20220;-76
2022/07/04 02:35:11;;;;;;;2.30;2.10;;;20.90;99.90;;;;;;5012384;28;20218;-76
2022/07/04 02:37:39;;;;;;;2.17;1.95;;;21.30;99.90;;;;;;5013641;28;20204;-76
2022/07/04 02:40:08;;;;;;;1.90;1.80;;;21.60;99.90;;;;;;5012871;28;20223;-76
2022/07/04 02:42:37;;;;;;;1.98;1.88;;;21.80;99.90;;;;;;5013626;28;20221;-76
2022/07/04 02:45:06;;;;;;;1.70;1.60;;;22.00;99.90;;;;;;5012882;28;20226;-76
2022/07/04 02:47:34;;;;;;;1.60;1.50;;;22.20;99.90;;;;;;4999394;28;20566;-75
2022/07/04 02:50:02;;;;;;;2.35;2.15;;;22.10;99.90;;;;;;5017969;28;20239;-76
2022/07/04 02:52:30;;;;;;;2.50;2.30;;;22.00;99.90;;;;;;5009623;28;20228;-76
2022/07/04 02:54:58;;;;;;;2.78;2.40;;;21.60;99.90;;;;;;5012285;28;20230;-75
2022/07/04 02:57:25;;;;;;;2.13;2.00;;;21.30;99.90;;;;;;5013443;28;20645;-77
2022/07/04 02:59:54;;;;;;;2.67;1.95;;;21.10;99.90;;;;;;5016338;28;20216;-76
2022/07/04 03:02:21;;;;;;;2.10;2.00;;;21.00;99.90;;;;;;5013372;28;20216;-75
2022/07/04 03:04:48;;;;;;;1.80;1.70;;;21.00;99.90;;;;;;5017613;28;20230;-78
2022/07/04 03:07:16;;;;;;;2.42;2.20;;;21.00;99.90;;;;;;5022215;28;20199;-77
2022/07/04 03:09:43;;;;;;;2.10;2.00;;;21.00;99.90;;;;;;5012729;28;20698;-75
2022/07/04 03:12:10;;;;;;;2.10;2.00;;;20.80;99.90;;;;;;5023807;28;20220;-76
2022/07/04 03:14:37;;;;;;;1.95;1.73;;;20.80;99.90;;;;;;5008979;28;20220;-75
2022/07/04 03:17:06;;;;;;;1.92;1.80;;;20.90;99.90;;;;;;5013940;28;20196;-76
2022/07/04 03:19:33;;;;;;;2.20;2.00;;;20.90;99.90;;;;;;5011640;28;20226;-76
2022/07/04 03:22:00;;;;;;;2.17;2.00;;;20.80;99.90;;;;;;5011277;28;20192;-75
2022/07/04 03:24:28;;;;;;;2.00;1.80;;;20.70;99.90;;;;;;5011593;28;20220;-76
2022/07/04 03:26:55;;;;;;;1.65;1.55;;;20.70;99.90;;;;;;5010763;28;20243;-76
2022/07/04 03:29:23;;;;;;;1.80;1.70;;;20.70;99.90;;;;;;5010073;28;20226;-75
2022/07/04 03:31:50;;;;;;;2.13;1.73;;;20.70;99.90;;;;;;5011753;28;20644;-75
2022/07/04 03:34:18;;;;;;;1.60;1.50;;;20.70;99.90;;;;;;5009152;28;20628;-76
2022/07/04 03:36:46;;;;;;;1.90;1.80;;;20.70;99.90;;;;;;5009646;28;20563;-76
2022/07/04 03:39:13;;;;;;;1.80;1.70;;;20.70;99.90;;;;;;5007780;28;20227;-76
2022/07/04 03:41:40;;;;;;;2.13;2.03;;;20.70;99.90;;;;;;5010589;28;20196;-76
2022/07/04 03:44:07;;;;;;;1.95;1.73;;;20.70;99.90;;;;;;5011418;28;20228;-76
2022/07/04 03:46:34;;;;;;;1.73;1.63;;;20.70;99.90;;;;;;5015779;28;20207;-76
2022/07/04 03:49:01;;;;;;;1.75;1.65;;;20.70;99.90;;;;;;5013238;28;20205;-76
2022/07/04 03:51:30;;;;;;;2.38;2.17;;;20.70;99.90;;;;;;5012490;28;20210;-76
2022/07/04 03:53:57;;;;;;;2.22;2.00;;;20.70;99.90;;;;;;5004279;28;20223;-76
2022/07/04 03:56:24;;;;;;;2.30;2.17;;;20.80;99.90;;;;;;5011517;28;20215;-76
2022/07/04 03:58:52;;;;;;;2.35;2.15;;;20.80;99.90;;;;;;5011886;28;20206;-76
2022/07/04 04:01:20;;;;;;;1.95;1.85;;;20.70;99.90;;;;;;5004023;28;20320;-75
2022/07/04 04:06:33;;;;;;;2.20;1.70;;;20.70;99.90;;;;;;5014814;28;20224;-76
2022/07/04 04:09:00;;;;;;;1.90;1.80;;;20.70;99.90;;;;;;5016254;28;20196;-76
2022/07/04 04:11:28;;;;;;;1.65;1.55;;;20.70;99.90;;;;;;5016970;28;20224;-76
2022/07/04 04:13:55;;;;;;;1.90;1.80;;;20.80;99.90;;;;;;5015400;28;20242;-76
2022/07/04 04:16:22;;;;;;;1.98;1.88;;;20.80;99.90;;;;;;5014211;28;20224;-75
2022/07/04 04:18:49;;;;;;;1.80;1.70;;;20.80;99.90;;;;;;5016706;28;20254;-76
2022/07/04 04:21:16;;;;;;;1.92;1.83;;;20.80;99.90;;;;;;5015029;28;20220;-76
2022/07/04 04:23:45;;;;;;;2.35;2.15;;;20.90;99.90;;;;;;5015707;28;20212;-75
2022/07/04 04:26:12;;;;;;;2.40;2.20;;;20.90;99.90;;;;;;5015592;28;20226;-75
2022/07/04 04:28:39;;;;;;;1.98;1.80;;;21.00;99.90;;;;;;5011487;28;20211;-76
2022/07/04 04:31:06;;;;;;;1.90;1.80;;;21.00;99.90;;;;;;5013946;28;20230;-75
2022/07/04 04:33:35;;;;;;;2.20;2.00;;;21.10;99.90;;;;;;5017398;28;20220;-77
2022/07/04 04:36:02;;;;;;;2.00;1.90;;;21.20;99.90;;;;;;5009931;28;20601;-76
2022/07/04 04:38:29;;;;;;;2.10;1.80;;;21.30;99.90;;;;;;5015636;28;20204;-75
2022/07/04 04:40:58;;;;;;;2.42;1.77;;;21.40;99.90;;;;;;5014111;28;20322;-76
2022/07/04 04:43:25;;;;;;;2.00;1.90;;;21.50;99.90;;;;;;5016054;28;20216;-77
2022/07/04 04:45:52;;;;;;;1.70;1.60;;;21.60;99.90;;;;;;5015034;28;20217;-76
2022/07/04 04:48:20;;;;;;;2.47;2.22;;;21.70;99.90;;;;;;5008567;28;20286;-77
2022/07/04 04:50:47;;;;;;;2.38;2.17;;;22.00;99.90;;;;;;5014036;28;20224;-77
2022/07/04 04:53:14;;;;;;;2.47;2.08;;;22.30;99.90;;;;;;5013774;28;20226;-77
2022/07/04 04:55:42;;;;;;;3.20;2.13;;;22.50;99.90;;;;;;5014607;28;20221;-78
2022/07/04 04:58:10;;;;;;;2.10;1.98;;;22.70;99.90;;;;;;5013668;28;20200;-77
2022/07/04 05:00:37;;;;;;;2.20;2.00;;;22.90;99.90;;;;;;5014782;28;20296;-77
2022/07/04 05:03:05;;;;;;;1.65;1.55;;;23.00;99.90;;;;;;5016074;28;20219;-78
2022/07/04 05:05:32;;;;;;;2.35;2.15;;;23.00;99.90;;;;;;5015405;28;20220;-78
2022/07/04 05:07:59;;;;;;;2.22;2.03;;;23.00;99.90;;;;;;5016198;28;20200;-78
2022/07/04 05:10:26;;;;;;;3.10;2.08;;;22.70;99.90;;;;;;5014737;28;20266;-78
2022/07/04 05:12:53;;;;;;;2.42;2.20;;;22.60;99.90;;;;;;5009710;28;20729;-78
2022/07/04 05:15:22;;;;;;;1.88;1.77;;;22.70;99.90;;;;;;5014728;28;20228;-77
2022/07/04 05:17:50;;;;;;;2.17;2.08;;;23.00;99.90;;;;;;5013849;28;20200;-76
2022/07/04 05:20:17;;;;;;;2.22;2.10;;;23.10;99.90;;;;;;5014376;28;20603;-78
2022/07/04 05:22:44;;;;;;;2.25;2.05;;;23.00;99.90;;;;;;5015808;28;20212;-77
2022/07/04 05:25:12;;;;;;;3.40;2.35;;;23.00;99.90;;;;;;5014986;28;20216;-77
2022/07/04 05:27:39;;;;;;;2.85;2.33;;;22.80;99.90;;;;;;5006215;28;20219;-77
2022/07/04 05:30:08;;;;;;;2.33;2.00;;;22.60;99.90;;;;;;5002729;28;20221;-77
2022/07/04 05:32:40;;;;;;;2.67;2.35;;;22.60;99.90;;;;;;5010125;28;20228;-76
2022/07/04 05:35:08;;;;;;;2.67;2.47;;;22.50;99.90;;;;;;5007890;28;20243;-77
2022/07/04 05:37:35;;;;;;;3.38;2.38;;;22.40;99.90;;;;;;5007248;28;20200;-76
2022/07/04 05:40:02;;;;;;;2.78;2.58;;;22.40;99.90;;;;;;5014757;28;20228;-78
2022/07/04 05:42:30;;;;;;;2.75;2.55;;;22.30;99.90;;;;;;5011077;28;20427;-77
2022/07/04 05:44:57;;;;;;;2.70;2.50;;;22.20;99.90;;;;;;5011311;28;20219;-78
2022/07/04 05:47:24;;;;;;;2.60;2.40;;;22.20;99.90;;;;;;5010309;28;20315;-77
2022/07/04 05:49:53;;;;;;;2.40;2.20;;;22.50;99.90;;;;;;5013043;28;20222;-77
2022/07/04 05:52:20;;;;;;;2.50;2.30;;;22.80;99.90;;;;;;5014727;28;20232;-78
2022/07/04 05:54:48;;;;;;;3.22;2.30;;;23.20;99.90;;;;;;5015633;28;20780;-78
2022/07/04 05:57:15;;;;;;;2.80;2.50;;;23.20;99.90;;;;;;5015797;28;21420;-76
2022/07/04 05:59:42;;;;;;;2.55;2.38;;;23.30;99.90;;;;;;5011252;28;20594;-76
2022/07/04 06:02:09;;;;;;;2.90;2.58;;;23.20;99.90;;;;;;5010077;28;20201;-77
2022/07/04 06:04:37;;;;;;;2.92;2.65;;;23.10;99.90;;;;;;5020681;28;20212;-76
2022/07/04 06:07:05;;;;;;;3.10;2.42;;;22.90;99.90;;;;;;5026009;28;20207;-77
2022/07/04 06:09:33;;;;;;;2.30;2.10;;;22.70;99.90;;;;;;5019205;28;20307;-78
2022/07/04 06:12:00;;;;;;;2.30;2.17;;;22.70;99.90;;;;;;5029486;28;20206;-77
2022/07/04 06:14:27;;;;;;;2.55;2.35;;;22.80;99.90;;;;;;5017148;28;20228;-78
2022/07/04 06:16:54;;;;;;;2.40;2.20;;;22.90;99.90;;;;;;5013355;28;20283;-76
2022/07/04 06:19:22;;;;;;;2.95;2.65;;;23.10;99.90;;;;;;5010877;28;20300;-77
2022/07/04 06:21:49;;;;;;;2.38;2.17;;;23.10;99.90;;;;;;5011608;28;20290;-78
2022/07/04 06:24:18;;;;;;;2.78;2.53;;;23.00;99.90;;;;;;5011189;28;20311;-76
2022/07/04 06:26:45;;;;;;;2.50;2.30;;;23.00;99.90;;;;;;5016893;28;20618;-77
2022/07/04 06:29:12;;;;;;;2.22;2.13;;;22.90;99.90;;;;;;5012411;28;20204;-77
2022/07/04 06:31:40;;;;;;;2.33;2.13;;;22.90;99.90;;;;;;5004214;28;20219;-78
2022/07/04 06:36:51;;;;;;;2.90;2.70;;;23.20;99.90;;;;;;5007279;28;20249;-76
2022/07/04 06:39:20;;;;;;;3.65;2.22;;;23.50;99.90;;;;;;5009250;28;20222;-76
2022/07/04 06:41:47;;;;;;;2.45;2.25;;;23.80;99.90;;;;;;5001654;28;20297;-78
2022/07/04 06:44:14;;;;;;;2.95;2.58;;;24.00;99.90;;;;;;5006502;28;20213;-76
2022/07/04 06:46:41;;;;;;;2.28;2.10;;;24.20;99.90;;;;;;5008042;28;20869;-77
2022/07/04 06:49:08;;;;;;;2.53;2.33;;;24.20;99.90;;;;;;5001357;28;20874;-77
2022/07/04 06:51:35;;;;;;;3.63;2.40;;;24.20;99.90;;;;;;5004486;28;20231;-76
2022/07/04 06:54:03;;;;;;;3.58;2.72;;;24.20;99.90;;;;;;5015323;28;20227;-77
2022/07/04 06:56:31;;;;;;;4.50;2.75;;;24.10;99.90;;;;;;5010372;28;20210;-76
2022/07/04 06:58:59;;;;;;;3.78;2.63;;;24.10;99.90;;;;;;4999405;28;20651;-77
2022/07/04 07:01:26;;;;;;;2.70;2.50;;;24.10;99.90;;;;;;5012141;28;20471;-76
2022/07/04 07:03:53;;;;;;;2.60;2.40;;;24.10;99.90;;;;;;5002501;28;20612;-77
2022/07/04 07:06:23;;;;;;;2.55;2.35;;;24.20;99.90;;;;;;5005624;28;20314;-79
2022/07/04 07:08:50;;;;;;;3.40;2.85;;;24.50;99.90;;;;;;5024233;28;20254;-78
2022/07/04 07:11:19;;;;;;;3.03;2.72;;;24.70;99.90;;;;;;5023164;28;20216;-77
2022/07/04 07:13:51;;;;;;;3.58;2.70;;;24.70;99.90;;;;;;5005676;28;20215;-78
2022/07/04 07:16:18;;;;;;;3.05;2.83;;;24.80;99.90;;;;;;5020682;28;20300;-79
2022/07/04 07:18:46;;;;;;;2.85;2.65;;;24.70;99.90;;;;;;5017743;28;20196;-77
2022/07/04 07:21:13;;;;;;;2.92;2.72;;;24.50;99.90;;;;;;5020051;28;20230;-77
2022/07/04 07:23:40;;;;;;;3.97;2.80;;;24.70;99.90;;;;;;5023022;28;20220;-77
2022/07/04 07:26:09;;;;;;;12.55;2.88;;;24.80;99.90;;;;;;5009303;28;20481;-77
2022/07/04 07:28:36;;;;;;;2.75;2.38;;;24.80;99.90;;;;;;5021608;28;20195;-77
2022/07/04 07:31:05;;;;;;;2.40;2.20;;;24.90;99.90;;;;;;5021014;28;20212;-79
2022/07/04 07:33:32;;;;;;;2.92;2.13;;;25.00;99.90;;;;;;5015589;28;20578;-77
2022/07/04 07:35:59;;;;;;;2.70;2.50;;;25.20;99.90;;;;;;5009917;28;20224;-77
2022/07/04 07:38:26;;;;;;;3.00;2.70;;;25.30;99.90;;;;;;5023113;28;20203;-77
2022/07/04 07:40:53;;;;;;;2.88;2.60;;;25.30;99.90;;;;;;5016402;28;20220;-77
2022/07/04 07:43:21;;;;;;;4.10;2.75;;;25.20;99.90;;;;;;5027194;28;20227;-78
2022/07/04 07:45:48;;;;;;;3.08;2.78;;;25.40;99.90;;;;;;5010790;28;20592;-78
2022/07/04 07:48:16;;;;;;;3.33;2.30;;;25.40;99.90;;;;;;5020203;28;20203;-77
2022/07/04 07:50:44;;;;;;;3.10;2.60;;;25.70;99.90;;;;;;5029636;28;20220;-76
2022/07/04 07:53:11;;;;;;;3.00;2.60;;;25.80;99.90;;;;;;5024345;28;20231;-77
2022/07/04 07:55:38;;;;;;;2.63;2.42;;;26.00;99.90;;;;;;5015544;28;20522;-77
2022/07/04 07:58:05;;;;;;;2.83;2.63;;;26.10;99.90;;;;;;5025330;28;20211;-78
2022/07/04 08:00:33;;;;;;;2.95;2.40;;;26.30;99.90;;;;;;5022800;28;20318;-78
2022/07/04 08:05:46;;;;;;;2.67;2.47;;;26.10;99.90;;;;;;5020538;28;20251;-77
2022/07/04 08:08:13;;;;;;;2.50;2.30;;;25.90;99.90;;;;;;5013921;28;20203;-77
2022/07/04 08:10:40;;;;;;;2.97;2.65;;;25.90;99.90;;;;;;5019373;28;20224;-78
2022/07/04 08:13:08;;;;;;;3.00;2.80;;;25.90;99.90;;;;;;5018858;28;20982;-76
2022/07/04 08:15:35;;;;;;;2.63;2.42;;;25.80;99.90;;;;;;5023065;28;20215;-77
2022/07/04 08:18:02;;;;;;;2.60;2.40;;;25.70;99.90;;;;;;5027552;28;20683;-77
2022/07/04 08:20:29;;;;;;;2.55;2.35;;;25.50;99.90;;;;;;5021412;28;20599;-76
2022/07/04 08:25:31;;;;;;;2.50;2.30;;;25.10;99.90;;;;;;5017273;28;20215;-76
2022/07/04 08:27:58;;;;;;;2.70;2.50;;;24.90;99.90;;;;;;5013967;28;20223;-74
2022/07/04 08:30:25;;;;;;;3.88;3.10;;;24.70;99.90;;;;;;5021522;28;20222;-75
2022/07/04 08:32:53;;;;;;;2.97;2.78;;;24.50;99.90;;;;;;5020757;28;20597;-73
2022/07/04 08:35:20;;;;;;;2.38;2.17;;;24.40;99.90;;;;;;5004152;28;20227;-74
2022/07/04 08:37:52;;;;;;;2.20;2.10;;;24.40;99.90;;;;;;5003298;28;20197;-76
2022/07/04 08:40:20;;;;;;;2.35;2.20;;;24.40;99.90;;;;;;5002521;28;20282;-74
2022/07/04 08:42:49;;;;;;;3.17;2.20;;;24.30;99.90;;;;;;5004394;28;20204;-73
2022/07/04 08:45:18;;;;;;;2.50;2.30;;;24.30;99.90;;;;;;4997593;28;20232;-76
2022/07/04 08:47:49;;;;;;;2.10;1.90;;;24.10;99.90;;;;;;4999454;28;20195;-76
2022/07/04 08:50:23;;;;;;;1.80;1.70;;;24.10;99.90;;;;;;5001054;28;20228;-77
2022/07/04 08:52:57;;;;;;;1.80;1.70;;;24.10;99.90;;;;;;5001569;28;20204;-76
2022/07/04 08:58:29;;;;;;;2.03;1.92;;;24.00;99.90;;;;;;4998890;28;20608;-76
2022/07/04 09:00:57;;;;;;;1.88;1.77;;;24.00;99.90;;;;;;4996312;28;20274;-74
2022/07/04 09:03:25;;;;;;;1.80;1.70;;;24.10;99.90;;;;;;4998777;28;20251;-77
2022/07/04 09:05:52;;;;;;;1.73;1.63;;;24.10;99.90;;;;;;5000761;28;20240;-74
2022/07/04 09:08:19;;;;;;;1.70;1.60;;;24.10;99.90;;;;;;4993477;28;20565;-76
2022/07/04 09:10:49;;;;;;;1.98;1.85;;;24.20;99.90;;;;;;4999855;28;20224;-75
2022/07/04 09:13:18;;;;;;;1.77;1.60;;;24.10;99.90;;;;;;5001379;28;20294;-75
2022/07/04 09:15:47;;;;;;;2.10;1.90;;;24.10;99.90;;;;;;5002434;28;20232;-75
2022/07/04 09:18:23;;;;;;;2.25;2.00;;;24.10;99.90;;;;;;5001013;28;20440;-75
2022/07/04 09:20:50;;;;;;;2.05;1.95;;;24.00;99.90;;;;;;5000462;28;20693;-75
2022/07/04 09:23:20;;;;;;;2.60;2.25;;;23.80;99.90;;;;;;5002563;28;20430;-74
2022/07/04 09:25:48;;;;;;;2.20;2.00;;;23.70;99.90;;;;;;4999902;28;20220;-76
2022/07/04 09:28:29;;;;;;;4.15;2.50;;;23.60;99.90;;;;;;4999928;28;20201;-74
2022/07/04 09:30:56;;;;;;;2.88;2.60;;;23.50;99.90;;;;;;4999400;28;20223;-76
2022/07/04 09:33:23;;;;;;;4.63;3.30;;;23.30;99.90;;;;;;4999146;28;20224;-76
2022/07/04 09:35:51;;;;;;;4.18;3.78;;;22.90;99.90;;;;;;4998487;28;20231;-72
2022/07/04 09:38:24;;;;;;;3.88;2.85;;;22.40;99.90;;;;;;4996833;28;20263;-75
2022/07/04 09:44:00;;;;;;;4.13;2.40;;;22.00;99.90;;;;;;5001118;28;20215;-75
2022/07/04 09:46:27;;;;;;;3.90;3.10;;;22.10;99.90;;;;;;4995881;28;20227;-73
2022/07/04 09:48:54;;;;;;;2.70;2.50;;;22.10;99.90;;;;;;5001529;28;20258;-75
2022/07/04 09:51:38;;;;;;;2.45;2.35;;;21.80;99.90;;;;;;5000006;28;20690;-75
2022/07/04 09:54:17;;;;;;;3.05;2.20;;;21.80;99.90;;;;;;4996130;28;20216;-75
2022/07/04 09:56:46;;;;;;;2.15;1.95;;;21.80;99.90;;;;;;5000591;28;20202;-74
2022/07/04 09:59:14;;;;;;;2.33;2.13;;;21.90;99.90;;;;;;5001945;28;20570;-76
2022/07/04 10:01:42;;;;;;;2.50;2.25;;;22.00;99.90;;;;;;4996414;28;20393;-74
2022/07/04 10:04:09;;;;;;;2.50;2.30;;;22.20;99.90;;;;;;4998382;28;20594;-74
2022/07/04 10:06:42;;;;;;;2.88;2.40;;;22.30;99.90;;;;;;4999813;28;20212;-76
2022/07/04 10:09:11;;;;;;;2.78;2.58;;;22.40;99.90;;;;;;5001292;28;20204;-77
2022/07/04 10:11:39;;;;;;;2.75;2.55;;;22.40;99.90;;;;;;4996866;28;20719;-75
2022/07/04 10:14:08;;;;;;;2.85;2.65;;;22.40;99.90;;;;;;5000473;28;20224;-75
2022/07/04 10:16:38;;;;;;;2.58;2.28;;;22.40;99.90;;;;;;4997678;28;20208;-75
2022/07/04 10:19:06;;;;;;;2.53;2.33;;;22.20;99.90;;;;;;4999960;28;20212;-75
2022/07/04 10:21:34;;;;;;;2.50;2.30;;;22.10;99.90;;;;;;5001077;28;20377;-76
2022/07/04 10:24:03;;;;;;;2.60;2.40;;;21.90;99.90;;;;;;4998787;28;20224;-75
2022/07/04 10:26:31;;;;;;;2.08;1.90;;;21.70;99.90;;;;;;5000455;28;20201;-76
2022/07/04 10:28:59;;;;;;;2.30;2.10;;;21.60;99.90;;;;;;4998226;28;20284;-76
2022/07/04 10:31:29;;;;;;;2.42;1.90;;;21.60;99.90;;;;;;4999414;28;20609;-73
2022/07/04 10:33:59;;;;;;;2.25;2.05;;;21.70;99.90;;;;;;4997100;28;20216;-75
2022/07/04 10:36:29;;;;;;;3.38;3.03;;;21.80;99.90;;;;;;4994908;28;20243;-76
2022/07/04 10:38:59;;;;;;;3.00;2.80;;;21.70;99.90;;;;;;4997582;28;20196;-74
2022/07/04 10:41:27;;;;;;;3.33;3.03;;;21.40;99.90;;;;;;4996491;28;20216;-76
2022/07/04 10:44:07;;;;;;;3.67;3.38;;;21.20;99.90;;;;;;4999879;28;20789;-75
2022/07/04 10:46:36;;;;;;;4.00;3.70;;;21.20;99.90;;;;;;4998223;28;20317;-75
2022/07/04 10:49:07;;;;;;;3.88;3.58;;;20.90;99.90;;;;;;4999034;28;20197;-73
2022/07/04 10:51:38;;;;;;;3.22;2.85;;;20.70;99.90;;;;;;4993014;28;20895;-72
2022/07/04 10:54:08;;;;;;;3.40;2.83;;;20.50;99.90;;;;;;4996163;28;20675;-76
2022/07/04 10:56:44;;;;;;;3.80;2.53;;;20.70;99.90;;;;;;4998257;28;20235;-72
2022/07/04 10:59:17;;;;;;;3.10;2.80;;;21.00;99.90;;;;;;4998906;28;20315;-72
2022/07/04 11:02:06;;;;;;;2.90;2.67;;;21.40;99.90;;;;;;4995508;28;20203;-72
2022/07/04 11:04:48;;;;;;;3.42;2.50;;;21.60;99.90;;;;;;4995491;28;20224;-73
2022/07/04 11:07:16;;;;;;;2.85;2.30;;;21.80;99.90;;;;;;4996880;28;20839;-75
2022/07/04 11:09:44;;;;;;;2.25;2.05;;;21.90;99.90;;;;;;4994200;28;20853;-73
2022/07/04 11:12:14;;;;;;;2.17;2.00;;;22.00;99.90;;;;;;4997900;28;20200;-75
2022/07/04 11:14:43;;;;;;;2.47;2.15;;;22.00;99.90;;;;;;4995925;28;20479;-78
2022/07/04 11:17:13;;;;;;;2.15;1.90;;;22.00;99.90;;;;;;4998939;28;20206;-75
2022/07/04 11:19:40;;;;;;;2.97;2.10;;;22.10;99.90;;;;;;4992044;28;20806;-75
2022/07/04 11:22:11;;;;;;;1.80;1.70;;;22.00;99.90;;;;;;4999194;28;20814;-72
2022/07/04 11:24:38;;;;;;;2.60;1.75;;;22.00;99.90;;;;;;4995349;28;20238;-75
2022/07/04 11:27:09;;;;;;;2.10;2.00;;;21.90;99.90;;;;;;4994988;28;20739;-75
2022/07/04 11:29:36;;;;;;;2.05;1.75;;;21.80;99.90;;;;;;4996780;28;20751;-74
2022/07/04 11:32:07;;;;;;;2.00;1.90;;;21.70;99.90;;;;;;4996052;28;20200;-76
2022/07/04 11:34:34;;;;;;;3.03;2.00;;;21.60;99.90;;;;;;4992981;28;20223;-74
2022/07/04 11:37:04;;;;;;;2.15;2.05;;;21.60;99.90;;;;;;4997933;28;20711;-75
2022/07/04 11:39:32;;;;;;;2.08;1.98;;;21.60;99.90;;;;;;4994298;28;20212;-77
2022/07/04 11:45:05;;;;;;;2.78;2.35;;;21.60;99.90;;;;;;4992871;28;20259;-75
2022/07/04 11:47:36;;;;;;;2.72;2.53;;;21.80;99.90;;;;;;4995725;28;20208;-75
2022/07/04 11:50:06;;;;;;;2.45;2.25;;;22.10;99.90;;;;;;4995031;28;20299;-73
2022/07/04 11:52:41;;;;;;;2.40;2.20;;;22.40;99.90;;;;;;4994759;28;20232;-76
2022/07/04 11:55:11;;;;;;;2.45;2.25;;;22.70;99.90;;;;;;4992272;28;20227;-74
2022/07/04 11:57:40;;;;;;;2.30;2.10;;;22.90;99.90;;;;;;4994365;28;20201;-78
2022/07/04 12:00:10;;;;;;;2.78;2.10;;;23.20;99.90;;;;;;4995629;28;20522;-75
2022/07/04 12:02:38;;;;;;;2.20;1.95;;;23.40;99.90;;;;;;4997780;28;21054;-76
2022/07/04 12:05:07;;;;;;;2.40;2.20;;;23.60;99.90;;;;;;5001340;28;20904;-75
2022/07/04 12:07:37;;;;;;;2.00;1.90;;;23.60;99.90;;;;;;4989164;28;20212;-75
2022/07/04 12:10:14;;;;;;;3.38;2.95;;;23.70;99.90;;;;;;4994779;28;20227;-77
2022/07/04 12:12:54;;;;;;;3.33;3.03;;;23.80;99.90;;;;;;4996987;28;20215;-76
2022/07/04 12:15:22;;;;;;;5.28;3.75;;;24.00;99.90;;;;;;4993137;28;20224;-78
2022/07/04 12:17:53;;;;;;;4.32;3.45;;;23.80;99.90;;;;;;4997411;28;20201;-77
2022/07/04 12:20:20;;;;;;;3.70;3.40;;;23.60;99.90;;;;;;4997393;28;20731;-75
2022/07/04 12:22:52;;;;;;;3.65;3.35;;;23.30;99.90;;;;;;4997447;28;20291;-76
2022/07/04 12:25:27;;;;;;;3.17;2.92;;;23.40;99.90;;;;;;4996034;28;20224;-74
2022/07/04 12:27:56;;;;;;;5.43;4.72;;;23.60;99.90;;;;;;5002589;28;20287;-77
2022/07/04 12:30:24;;;;;;;3.80;3.50;;;23.30;99.90;;;;;;4995851;28;20235;-77
2022/07/04 12:32:53;;;;;;;4.55;4.15;;;22.70;99.90;;;;;;4998773;28;20572;-76
2022/07/04 12:35:47;;;;;;;4.70;4.15;;;22.40;99.90;;;;;;4994953;28;20223;-75
2022/07/04 12:38:16;;;;;;;3.70;3.40;;;22.50;99.90;;;;;;5000009;28;20212;-76
2022/07/04 12:40:59;;;;;;;3.90;3.60;;;22.50;99.90;;;;;;5002676;28;20676;-76
2022/07/04 12:43:27;;;;;;;4.25;3.83;;;22.70;99.90;;;;;;5001443;28;20224;-77
2022/07/04 12:45:56;;;;;;;3.38;3.08;;;23.00;99.90;;;;;;4996554;28;20288;-76
2022/07/04 12:48:26;;;;;;;3.60;3.30;;;23.30;99.90;;;;;;4997935;28;20223;-77
2022/07/04 12:50:54;;;;;;;5.35;3.90;;;23.20;99.90;;;;;;4996658;28;20726;-76
2022/07/04 12:53:21;;;;;;;3.58;3.28;;;23.30;99.90;;;;;;4998329;28;20348;-76
2022/07/04 12:55:50;;;;;;;5.72;3.35;;;23.40;99.90;;;;;;4997287;28;20232;-76
2022/07/04 12:58:18;;;;;;;3.45;3.15;;;23.40;99.90;;;;;;4999662;28;20701;-76
2022/07/04 13:00:46;;;;;;;4.13;3.50;;;23.40;99.90;;;;;;4991001;28;20615;-75
2022/07/04 13:03:13;;;;;;;6.03;3.30;;;23.90;99.90;;;;;;4995193;28;20205;-77
2022/07/04 13:05:40;;;;;;;3.60;3.20;;;24.30;99.90;;;;;;4992337;28;20222;-76
2022/07/04 13:08:08;;;;;;;3.53;3.17;;;24.20;99.90;;;;;;4995733;28;20200;-75
2022/07/04 13:10:36;;;;;;;3.28;2.97;;;23.90;99.90;;;;;;4993596;28;20225;-76
2022/07/04 13:13:03;;;;;;;3.22;3.03;;;23.50;99.90;;;;;;4996935;28;22153;-75
2022/07/04 13:15:32;;;;;;;3.67;2.80;;;23.40;99.90;;;;;;4995617;28;20234;-73
2022/07/04 13:18:00;;;;;;;3.45;3.15;;;23.30;99.90;;;;;;4996444;28;20211;-73
2022/07/04 13:20:27;;;;;;;2.72;2.53;;;23.20;99.90;;;;;;4997679;28;21503;-75